Terminal Aerodrome Forecast
Issued by NWS

Home | Current Version | Previous Version | Text Only | Print | Product List | Glossary On
Versions: 1 2 3 4 5 6 7 8 9 10 11 12 13 14 15 16
000
FTUS43 KMQT 191125
TAFIWD
TAF
KIWD 191125Z 1912/2012 15006KT P6SM BKN045
     FM191800 16006KT P6SM SCT050
     FM200100 14008KT P6SM SCT150
     FM200400 15011G18KT P6SM FEW200 WS010/16040KT
     FM201000 16014G23KT P6SM BKN110 WS010/17045KT=

USA.gov is the U.S. government's official web portal to all federal, state and local government web resources and services.